sensor_id;sensor_type;location;lat;lon;timestamp;pressure;altitude;pressure_sealevel;temperature;humidity
34297;BME280;20564;42.902;25.336;2024-03-07T00:00:26;97134.28;;;4.43;100.00
34297;BME280;20564;42.902;25.336;2024-03-07T00:02:54;97131.88;;;4.40;100.00
34297;BME280;20564;42.902;25.336;2024-03-07T00:05:22;97132.72;;;4.53;100.00
34297;BME280;20564;42.902;25.336;2024-03-07T00:07:53;97135.03;;;4.58;100.00
34297;BME280;20564;42.902;25.336;2024-03-07T00:10:20;97117.19;;;4.65;100.00
34297;BME280;20564;42.902;25.336;2024-03-07T00:12:48;97113.09;;;4.60;100.00
34297;BME280;20564;42.902;25.336;2024-03-07T00:15:16;97108.13;;;4.57;100.00
34297;BME280;20564;42.902;25.336;2024-03-07T00:17:43;97113.22;;;4.59;100.00
34297;BME280;20564;42.902;25.336;2024-03-07T00:20:10;97110.81;;;4.56;100.00
34297;BME280;20564;42.902;25.336;2024-03-07T00:22:42;97111.66;;;4.56;100.00
34297;BME280;20564;42.902;25.336;2024-03-07T00:25:10;97103.53;;;4.61;100.00
34297;BME280;20564;42.902;25.336;2024-03-07T00:27:38;97101.63;;;4.63;100.00
34297;BME280;20564;42.902;25.336;2024-03-07T00:30:06;97109.56;;;4.62;100.00
34297;BME280;20564;42.902;25.336;2024-03-07T00:32:35;97104.16;;;4.65;100.00
34297;BME280;20564;42.902;25.336;2024-03-07T00:35:07;97103.50;;;4.74;100.00
34297;BME280;20564;42.902;25.336;2024-03-07T00:37:37;97107.25;;;4.82;100.00
34297;BME280;20564;42.902;25.336;2024-03-07T00:40:04;97097.66;;;4.83;100.00
34297;BME280;20564;42.902;25.336;2024-03-07T00:42:33;97097.44;;;4.86;100.00
34297;BME280;20564;42.902;25.336;2024-03-07T00:45:01;97094.81;;;4.86;100.00
34297;BME280;20564;42.902;25.336;2024-03-07T00:47:28;97090.34;;;4.88;100.00
34297;BME280;20564;42.902;25.336;2024-03-07T00:49:55;97085.00;;;4.90;100.00
34297;BME280;20564;42.902;25.336;2024-03-07T00:52:22;97082.38;;;5.02;100.00
34297;BME280;20564;42.902;25.336;2024-03-07T00:54:49;97082.38;;;5.02;100.00
34297;BME280;20564;42.902;25.336;2024-03-07T00:57:16;97088.03;;;4.96;100.00
34297;BME280;20564;42.902;25.336;2024-03-07T00:59:43;97080.41;;;4.93;100.00
34297;BME280;20564;42.902;25.336;2024-03-07T01:02:10;97077.06;;;5.04;100.00
34297;BME280;20564;42.902;25.336;2024-03-07T01:04:37;97073.81;;;5.00;100.00
34297;BME280;20564;42.902;25.336;2024-03-07T01:07:05;97064.34;;;4.99;100.00
34297;BME280;20564;42.902;25.336;2024-03-07T01:09:34;97071.00;;;5.03;100.00
34297;BME280;20564;42.902;25.336;2024-03-07T01:12:02;97064.22;;;5.01;100.00
34297;BME280;20564;42.902;25.336;2024-03-07T01:14:33;97067.34;;;5.06;100.00
34297;BME280;20564;42.902;25.336;2024-03-07T01:17:00;97071.53;;;5.08;100.00
34297;BME280;20564;42.902;25.336;2024-03-07T01:19:27;97067.97;;;5.10;100.00
34297;BME280;20564;42.902;25.336;2024-03-07T01:21:54;97062.75;;;5.10;100.00
34297;BME280;20564;42.902;25.336;2024-03-07T01:24:21;97068.31;;;5.05;100.00
34297;BME280;20564;42.902;25.336;2024-03-07T01:26:49;97059.19;;;5.11;100.00
34297;BME280;20564;42.902;25.336;2024-03-07T01:29:16;97057.75;;;5.06;100.00
34297;BME280;20564;42.902;25.336;2024-03-07T01:31:43;97067.22;;;5.07;100.00
34297;BME280;20564;42.902;25.336;2024-03-07T01:34:10;97054.19;;;5.07;100.00
34297;BME280;20564;42.902;25.336;2024-03-07T01:36:37;97060.22;;;5.08;100.00
34297;BME280;20564;42.902;25.336;2024-03-07T01:39:04;97058.78;;;5.04;100.00
34297;BME280;20564;42.902;25.336;2024-03-07T01:41:32;97054.84;;;4.98;100.00
34297;BME280;20564;42.902;25.336;2024-03-07T01:44:01;97055.06;;;4.95;100.00
34297;BME280;20564;42.902;25.336;2024-03-07T01:46:29;97058.63;;;4.94;100.00
34297;BME280;20564;42.902;25.336;2024-03-07T01:48:57;97045.59;;;4.94;100.00
34297;BME280;20564;42.902;25.336;2024-03-07T01:51:25;97052.75;;;5.03;100.00
34297;BME280;20564;42.902;25.336;2024-03-07T01:53:52;97054.19;;;5.07;100.00
34297;BME280;20564;42.902;25.336;2024-03-07T01:56:21;97050.88;;;5.05;100.00
34297;BME280;20564;42.902;25.336;2024-03-07T01:58:49;97042.72;;;5.10;100.00
34297;BME280;20564;42.902;25.336;2024-03-07T02:01:21;97047.09;;;5.10;100.00
34297;BME280;20564;42.902;25.336;2024-03-07T02:03:49;97048.75;;;5.11;100.00
34297;BME280;20564;42.902;25.336;2024-03-07T02:06:15;97035.28;;;5.17;100.00
34297;BME280;20564;42.902;25.336;2024-03-07T02:08:42;97044.72;;;5.30;100.00
34297;BME280;20564;42.902;25.336;2024-03-07T02:11:09;97039.66;;;5.40;100.00
34297;BME280;20564;42.902;25.336;2024-03-07T02:13:37;97043.00;;;5.42;100.00
34297;BME280;20564;42.902;25.336;2024-03-07T02:16:04;97031.50;;;5.45;100.00
34297;BME280;20564;42.902;25.336;2024-03-07T02:18:32;97036.16;;;5.52;100.00
34297;BME280;20564;42.902;25.336;2024-03-07T02:20:59;97038.22;;;5.60;100.00
34297;BME280;20564;42.902;25.336;2024-03-07T02:23:26;97024.47;;;5.69;100.00
34297;BME280;20564;42.902;25.336;2024-03-07T02:25:54;97038.84;;;5.75;100.00
34297;BME280;20564;42.902;25.336;2024-03-07T02:28:21;97038.44;;;5.92;100.00
34297;BME280;20564;42.902;25.336;2024-03-07T02:30:48;97040.84;;;6.07;100.00
34297;BME280;20564;42.902;25.336;2024-03-07T02:33:18;97030.16;;;6.10;100.00
34297;BME280;20564;42.902;25.336;2024-03-07T02:35:45;97032.69;;;6.22;100.00
34297;BME280;20564;42.902;25.336;2024-03-07T02:38:12;97033.06;;;6.29;100.00
34297;BME280;20564;42.902;25.336;2024-03-07T02:40:39;97034.72;;;6.41;98.50
34297;BME280;20564;42.902;25.336;2024-03-07T02:43:06;97031.16;;;6.53;98.13
34297;BME280;20564;42.902;25.336;2024-03-07T02:45:34;97025.69;;;6.57;98.77
34297;BME280;20564;42.902;25.336;2024-03-07T02:48:00;97033.16;;;6.61;98.19
34297;BME280;20564;42.902;25.336;2024-03-07T02:50:27;97031.88;;;6.67;97.45
34297;BME280;20564;42.902;25.336;2024-03-07T02:52:54;97028.28;;;6.68;97.06
34297;BME280;20564;42.902;25.336;2024-03-07T02:55:21;97029.47;;;6.75;96.85
34297;BME280;20564;42.902;25.336;2024-03-07T02:57:49;97023.88;;;6.80;96.77
34297;BME280;20564;42.902;25.336;2024-03-07T03:00:16;97018.31;;;6.84;96.54
34297;BME280;20564;42.902;25.336;2024-03-07T03:02:53;97015.56;;;6.86;96.89
34297;BME280;20564;42.902;25.336;2024-03-07T03:05:21;97022.44;;;6.87;96.47
34297;BME280;20564;42.902;25.336;2024-03-07T03:07:49;97025.19;;;6.85;96.88
34297;BME280;20564;42.902;25.336;2024-03-07T03:10:24;97023.03;;;6.90;97.12
34297;BME280;20564;42.902;25.336;2024-03-07T03:12:58;97026.47;;;6.91;96.39
34297;BME280;20564;42.902;25.336;2024-03-07T03:15:27;97024.22;;;6.86;96.64
34297;BME280;20564;42.902;25.336;2024-03-07T03:17:54;97023.53;;;6.84;96.71
34297;BME280;20564;42.902;25.336;2024-03-07T03:20:21;97018.78;;;6.78;97.40
34297;BME280;20564;42.902;25.336;2024-03-07T03:22:52;97023.88;;;6.80;98.25
34297;BME280;20564;42.902;25.336;2024-03-07T03:25:40;97025.19;;;6.85;97.65
34297;BME280;20564;42.902;25.336;2024-03-07T03:28:08;97032.31;;;6.83;97.64
34297;BME280;20564;42.902;25.336;2024-03-07T03:30:40;97024.75;;;6.80;98.42
34297;BME280;20564;42.902;25.336;2024-03-07T03:33:10;97015.44;;;6.76;98.90
34297;BME280;20564;42.902;25.336;2024-03-07T03:35:37;97027.59;;;6.77;99.03
34297;BME280;20564;42.902;25.336;2024-03-07T03:38:05;97026.88;;;6.75;98.90
34297;BME280;20564;42.902;25.336;2024-03-07T03:40:33;97020.94;;;6.73;98.94
34297;BME280;20564;42.902;25.336;2024-03-07T03:43:01;97016.78;;;6.70;98.19
34297;BME280;20564;42.902;25.336;2024-03-07T03:45:28;97013.31;;;6.70;99.23
34297;BME280;20564;42.902;25.336;2024-03-07T03:47:55;97020.09;;;6.72;98.56
34297;BME280;20564;42.902;25.336;2024-03-07T03:50:22;97017.72;;;6.69;98.62
34297;BME280;20564;42.902;25.336;2024-03-07T03:52:50;97016.78;;;6.70;98.89
34297;BME280;20564;42.902;25.336;2024-03-07T03:55:17;97017.59;;;6.71;99.06
34297;BME280;20564;42.902;25.336;2024-03-07T03:57:44;97011.91;;;6.66;98.84
34297;BME280;20564;42.902;25.336;2024-03-07T04:00:14;97031.16;;;6.65;99.48
34297;BME280;20564;42.902;25.336;2024-03-07T04:02:42;97024.03;;;6.56;100.00
34297;BME280;20564;42.902;25.336;2024-03-07T04:05:11;97026.16;;;6.50;100.00
34297;BME280;20564;42.902;25.336;2024-03-07T04:07:38;97024.13;;;6.43;100.00
34297;BME280;20564;42.902;25.336;2024-03-07T04:10:06;97023.53;;;6.39;100.00
34297;BME280;20564;42.902;25.336;2024-03-07T04:12:39;97026.28;;;6.38;100.00
34297;BME280;20564;42.902;25.336;2024-03-07T04:15:08;97023.81;;;6.36;100.00
34297;BME280;20564;42.902;25.336;2024-03-07T04:17:36;97015.00;;;6.37;100.00
34297;BME280;20564;42.902;25.336;2024-03-07T04:20:06;97022.13;;;6.35;100.00
34297;BME280;20564;42.902;25.336;2024-03-07T04:22:34;97027.84;;;6.29;100.00
34297;BME280;20564;42.902;25.336;2024-03-07T04:25:02;97027.84;;;6.29;100.00
34297;BME280;20564;42.902;25.336;2024-03-07T04:27:29;97025.56;;;6.24;100.00
34297;BME280;20564;42.902;25.336;2024-03-07T04:29:56;97038.63;;;6.24;100.00
34297;BME280;20564;42.902;25.336;2024-03-07T04:32:24;97030.91;;;6.12;100.00
34297;BME280;20564;42.902;25.336;2024-03-07T04:34:50;97031.13;;;6.09;100.00
34297;BME280;20564;42.902;25.336;2024-03-07T04:37:17;97035.75;;;6.05;100.00
34297;BME280;20564;42.902;25.336;2024-03-07T04:39:44;97036.34;;;6.09;100.00
34297;BME280;20564;42.902;25.336;2024-03-07T04:42:14;97036.81;;;6.02;100.00
34297;BME280;20564;42.902;25.336;2024-03-07T04:44:42;97043.94;;;6.00;100.00
34297;BME280;20564;42.902;25.336;2024-03-07T04:47:09;97045.47;;;6.03;100.00
34297;BME280;20564;42.902;25.336;2024-03-07T04:49:36;97039.78;;;5.98;100.00
34297;BME280;20564;42.902;25.336;2024-03-07T04:52:03;97051.56;;;6.03;100.00
34297;BME280;20564;42.902;25.336;2024-03-07T04:54:32;97047.63;;;6.09;100.00
34297;BME280;20564;42.902;25.336;2024-03-07T04:57:01;97039.78;;;6.09;100.00
34297;BME280;20564;42.902;25.336;2024-03-07T04:59:28;97043.00;;;6.13;100.00
34297;BME280;20564;42.902;25.336;2024-03-07T05:01:55;97038.25;;;6.18;100.00
34297;BME280;20564;42.902;25.336;2024-03-07T05:04:22;97037.56;;;6.16;100.00
34297;BME280;20564;42.902;25.336;2024-03-07T05:06:50;97047.66;;;6.20;100.00
34297;BME280;20564;42.902;25.336;2024-03-07T05:09:17;97045.41;;;6.27;100.00
34297;BME280;20564;42.902;25.336;2024-03-07T05:11:53;97044.34;;;6.30;100.00
34297;BME280;20564;42.902;25.336;2024-03-07T05:14:21;97040.41;;;6.35;100.00
34297;BME280;20564;42.902;25.336;2024-03-07T05:16:54;97047.34;;;6.47;100.00
34297;BME280;20564;42.902;25.336;2024-03-07T05:19:36;97054.22;;;6.48;100.00
34297;BME280;20564;42.902;25.336;2024-03-07T05:22:07;97047.19;;;6.49;100.00
34297;BME280;20564;42.902;25.336;2024-03-07T05:24:34;97062.53;;;6.53;100.00
34297;BME280;20564;42.902;25.336;2024-03-07T05:27:01;97055.88;;;6.61;100.00
34297;BME280;20564;42.902;25.336;2024-03-07T05:29:28;97058.63;;;6.70;100.00
34297;BME280;20564;42.902;25.336;2024-03-07T05:32:21;97065.63;;;6.81;100.00
34297;BME280;20564;42.902;25.336;2024-03-07T05:34:50;97063.47;;;6.86;100.00
34297;BME280;20564;42.902;25.336;2024-03-07T05:37:17;97051.13;;;6.88;100.00
34297;BME280;20564;42.902;25.336;2024-03-07T05:39:44;97053.97;;;6.96;100.00
34297;BME280;20564;42.902;25.336;2024-03-07T05:42:11;97056.78;;;7.05;100.00
34297;BME280;20564;42.902;25.336;2024-03-07T05:44:41;97064.28;;;7.09;100.00
34297;BME280;20564;42.902;25.336;2024-03-07T05:47:09;97063.09;;;7.13;99.78
34297;BME280;20564;42.902;25.336;2024-03-07T05:49:36;97064.63;;;7.16;99.18
34297;BME280;20564;42.902;25.336;2024-03-07T05:52:06;97067.72;;;7.21;98.62
34297;BME280;20564;42.902;25.336;2024-03-07T05:54:33;97070.31;;;7.32;98.58
34297;BME280;20564;42.902;25.336;2024-03-07T05:57:00;97073.63;;;7.34;97.27
34297;BME280;20564;42.902;25.336;2024-03-07T05:59:27;97069.81;;;7.38;96.84
34297;BME280;20564;42.902;25.336;2024-03-07T06:01:58;97072.66;;;7.46;95.90
34297;BME280;20564;42.902;25.336;2024-03-07T06:04:25;97073.31;;;7.60;95.72
34297;BME280;20564;42.902;25.336;2024-03-07T06:06:52;97075.47;;;7.55;95.43
34297;BME280;20564;42.902;25.336;2024-03-07T06:09:20;97084.88;;;7.57;94.74
34297;BME280;20564;42.902;25.336;2024-03-07T06:11:50;97085.00;;;7.56;96.74
34297;BME280;20564;42.902;25.336;2024-03-07T06:14:18;97081.69;;;7.54;97.90
34297;BME280;20564;42.902;25.336;2024-03-07T06:16:49;97090.94;;;7.58;99.04
34297;BME280;20564;42.902;25.336;2024-03-07T06:19:16;97085.13;;;7.54;99.26
34297;BME280;20564;42.902;25.336;2024-03-07T06:21:43;97098.09;;;7.56;100.00
34297;BME280;20564;42.902;25.336;2024-03-07T06:24:11;97097.34;;;7.65;100.00
34297;BME280;20564;42.902;25.336;2024-03-07T06:26:41;97102.22;;;7.69;100.00
34297;BME280;20564;42.902;25.336;2024-03-07T06:29:12;97104.16;;;7.56;100.00
34297;BME280;20564;42.902;25.336;2024-03-07T06:31:40;97102.16;;;7.48;100.00
34297;BME280;20564;42.902;25.336;2024-03-07T06:34:12;97109.81;;;7.40;100.00
34297;BME280;20564;42.902;25.336;2024-03-07T06:36:42;97109.38;;;7.24;100.00
34297;BME280;20564;42.902;25.336;2024-03-07T06:39:09;97109.22;;;7.25;100.00
34297;BME280;20564;42.902;25.336;2024-03-07T06:41:39;97109.38;;;7.24;100.00
34297;BME280;20564;42.902;25.336;2024-03-07T06:44:07;97116.97;;;7.16;100.00
34297;BME280;20564;42.902;25.336;2024-03-07T06:46:37;97124.72;;;7.17;100.00
34297;BME280;20564;42.902;25.336;2024-03-07T06:49:04;97115.06;;;7.18;100.00
34297;BME280;20564;42.902;25.336;2024-03-07T06:51:37;97123.91;;;7.17;100.00
34297;BME280;20564;42.902;25.336;2024-03-07T06:54:05;97127.69;;;7.13;100.00
34297;BME280;20564;42.902;25.336;2024-03-07T06:56:32;97126.84;;;7.12;100.00
34297;BME280;20564;42.902;25.336;2024-03-07T06:59:00;97131.72;;;7.06;100.00
34297;BME280;20564;42.902;25.336;2024-03-07T07:01:31;97127.94;;;7.10;100.00
34297;BME280;20564;42.902;25.336;2024-03-07T07:04:00;97141.03;;;7.10;100.00
34297;BME280;20564;42.902;25.336;2024-03-07T07:06:30;97141.50;;;7.15;100.00
34297;BME280;20564;42.902;25.336;2024-03-07T07:08:58;97139.56;;;7.06;100.00
34297;BME280;20564;42.902;25.336;2024-03-07T07:11:28;97144.56;;;7.09;100.00
34297;BME280;20564;42.902;25.336;2024-03-07T07:14:01;97144.56;;;7.09;100.00
34297;BME280;20564;42.902;25.336;2024-03-07T07:16:31;97144.81;;;7.06;100.00
34297;BME280;20564;42.902;25.336;2024-03-07T07:19:00;97145.06;;;7.14;100.00
34297;BME280;20564;42.902;25.336;2024-03-07T07:21:27;97147.19;;;7.09;100.00
34297;BME280;20564;42.902;25.336;2024-03-07T07:23:54;97152.91;;;7.14;100.00
34297;BME280;20564;42.902;25.336;2024-03-07T07:26:23;97155.41;;;7.04;100.00
34297;BME280;20564;42.902;25.336;2024-03-07T07:28:50;97155.03;;;6.97;100.00
34297;BME280;20564;42.902;25.336;2024-03-07T07:31:21;97160.50;;;6.94;100.00
34297;BME280;20564;42.902;25.336;2024-03-07T07:33:48;97163.03;;;6.96;100.00
34297;BME280;20564;42.902;25.336;2024-03-07T07:36:16;97165.19;;;7.02;100.00
34297;BME280;20564;42.902;25.336;2024-03-07T07:38:45;97160.63;;;7.04;100.00
34297;BME280;20564;42.902;25.336;2024-03-07T07:41:12;97165.41;;;7.10;100.00
34297;BME280;20564;42.902;25.336;2024-03-07T07:43:40;97170.06;;;7.07;100.00
34297;BME280;20564;42.902;25.336;2024-03-07T07:46:09;97173.97;;;7.12;100.00
34297;BME280;20564;42.902;25.336;2024-03-07T07:48:36;97174.78;;;7.13;100.00
34297;BME280;20564;42.902;25.336;2024-03-07T07:51:05;97181.72;;;7.14;100.00
34297;BME280;20564;42.902;25.336;2024-03-07T07:53:34;97173.72;;;7.15;100.00
34297;BME280;20564;42.902;25.336;2024-03-07T07:56:01;97178.84;;;7.17;100.00
34297;BME280;20564;42.902;25.336;2024-03-07T07:58:28;97175.75;;;7.23;100.00
34297;BME280;20564;42.902;25.336;2024-03-07T08:00:55;97177.44;;;7.24;100.00
34297;BME280;20564;42.902;25.336;2024-03-07T08:03:23;97176.81;;;7.32;100.00
34297;BME280;20564;42.902;25.336;2024-03-07T08:05:51;97180.28;;;7.32;100.00
34297;BME280;20564;42.902;25.336;2024-03-07T08:08:18;97182.16;;;7.30;100.00
34297;BME280;20564;42.902;25.336;2024-03-07T08:10:47;97188.59;;;7.37;100.00
34297;BME280;20564;42.902;25.336;2024-03-07T08:13:15;97183.84;;;7.42;100.00
34297;BME280;20564;42.902;25.336;2024-03-07T08:15:42;97182.88;;;7.43;100.00
34297;BME280;20564;42.902;25.336;2024-03-07T08:18:12;97186.78;;;7.49;100.00
34297;BME280;20564;42.902;25.336;2024-03-07T08:20:40;97182.38;;;7.38;100.00
34297;BME280;20564;42.902;25.336;2024-03-07T08:23:08;97174.78;;;7.46;100.00
34297;BME280;20564;42.902;25.336;2024-03-07T08:25:37;97181.69;;;7.47;100.00
34297;BME280;20564;42.902;25.336;2024-03-07T08:28:07;97180.47;;;7.52;100.00
34297;BME280;20564;42.902;25.336;2024-03-07T08:30:34;97180.94;;;7.57;100.00
34297;BME280;20564;42.902;25.336;2024-03-07T08:33:04;97176.66;;;7.56;100.00
34297;BME280;20564;42.902;25.336;2024-03-07T08:35:33;97180.47;;;7.63;100.00
34297;BME280;20564;42.902;25.336;2024-03-07T08:38:01;97181.44;;;7.62;100.00
34297;BME280;20564;42.902;25.336;2024-03-07T08:40:29;97183.91;;;7.63;100.00
34297;BME280;20564;42.902;25.336;2024-03-07T08:43:02;97189.97;;;7.64;100.00
34297;BME280;20564;42.902;25.336;2024-03-07T08:45:30;97197.84;;;7.64;100.00
34297;BME280;20564;42.902;25.336;2024-03-07T08:48:02;97198.56;;;7.66;100.00
34297;BME280;20564;42.902;25.336;2024-03-07T08:50:32;97201.31;;;7.64;100.00
34297;BME280;20564;42.902;25.336;2024-03-07T08:53:01;97205.47;;;7.67;100.00
34297;BME280;20564;42.902;25.336;2024-03-07T08:55:29;97205.81;;;7.62;100.00
34297;BME280;20564;42.902;25.336;2024-03-07T08:57:55;97218.56;;;7.56;100.00
34297;BME280;20564;42.902;25.336;2024-03-07T09:00:22;97205.00;;;7.51;100.00
34297;BME280;20564;42.902;25.336;2024-03-07T09:02:55;97209.53;;;7.48;100.00
34297;BME280;20564;42.902;25.336;2024-03-07T09:05:29;97199.78;;;7.51;100.00
34297;BME280;20564;42.902;25.336;2024-03-07T09:07:58;97184.19;;;7.38;100.00
34297;BME280;20564;42.902;25.336;2024-03-07T09:10:26;97179.31;;;7.44;100.00
34297;BME280;20564;42.902;25.336;2024-03-07T09:12:57;97166.94;;;7.46;100.00
34297;BME280;20564;42.902;25.336;2024-03-07T09:15:24;97162.16;;;7.40;100.00
34297;BME280;20564;42.902;25.336;2024-03-07T09:17:51;97158.16;;;7.25;100.00
34297;BME280;20564;42.902;25.336;2024-03-07T09:20:20;97165.28;;;7.23;100.00
34297;BME280;20564;42.902;25.336;2024-03-07T09:22:47;97153.59;;;7.27;100.00
34297;BME280;20564;42.902;25.336;2024-03-07T09:25:18;97165.50;;;7.42;100.00
34297;BME280;20564;42.902;25.336;2024-03-07T09:27:47;97154.16;;;7.64;100.00
34297;BME280;20564;42.902;25.336;2024-03-07T09:30:14;97145.22;;;7.56;100.00
34297;BME280;20564;42.902;25.336;2024-03-07T09:32:48;97139.47;;;7.73;100.00
34297;BME280;20564;42.902;25.336;2024-03-07T09:35:16;97151.56;;;7.85;100.00
34297;BME280;20564;42.902;25.336;2024-03-07T09:37:44;97141.00;;;8.08;100.00
34297;BME280;20564;42.902;25.336;2024-03-07T09:40:11;97149.16;;;8.26;100.00
34297;BME280;20564;42.902;25.336;2024-03-07T09:42:43;97143.13;;;8.46;100.00
34297;BME280;20564;42.902;25.336;2024-03-07T09:45:19;97151.19;;;8.54;100.00
34297;BME280;20564;42.902;25.336;2024-03-07T09:47:50;97154.13;;;8.61;100.00
34297;BME280;20564;42.902;25.336;2024-03-07T09:50:20;97152.31;;;8.82;100.00
34297;BME280;20564;42.902;25.336;2024-03-07T09:52:52;97151.53;;;8.91;100.00
34297;BME280;20564;42.902;25.336;2024-03-07T09:55:21;97147.72;;;9.05;100.00
34297;BME280;20564;42.902;25.336;2024-03-07T09:57:53;97144.44;;;9.13;100.00
34297;BME280;20564;42.902;25.336;2024-03-07T10:00:24;97153.91;;;9.25;98.51
34297;BME280;20564;42.902;25.336;2024-03-07T10:03:05;97151.19;;;9.46;100.00
34297;BME280;20564;42.902;25.336;2024-03-07T10:05:33;97144.56;;;9.61;100.00
34297;BME280;20564;42.902;25.336;2024-03-07T10:08:01;97146.84;;;9.85;100.00
34297;BME280;20564;42.902;25.336;2024-03-07T10:10:28;97151.56;;;10.11;100.00
34297;BME280;20564;42.902;25.336;2024-03-07T10:12:57;97149.66;;;10.32;100.00
34297;BME280;20564;42.902;25.336;2024-03-07T10:15:30;97147.41;;;10.37;96.68
34297;BME280;20564;42.902;25.336;2024-03-07T10:17:58;97139.69;;;10.36;87.14
34297;BME280;20564;42.902;25.336;2024-03-07T10:20:28;97144.38;;;10.13;83.21
34297;BME280;20564;42.902;25.336;2024-03-07T10:22:55;97143.13;;;10.17;84.21
34297;BME280;20564;42.902;25.336;2024-03-07T10:25:23;97138.28;;;10.22;82.33
34297;BME280;20564;42.902;25.336;2024-03-07T10:27:56;97133.31;;;10.38;80.88
34297;BME280;20564;42.902;25.336;2024-03-07T10:30:26;97128.72;;;10.21;81.54
34297;BME280;20564;42.902;25.336;2024-03-07T10:32:59;97133.88;;;10.32;85.73
34297;BME280;20564;42.902;25.336;2024-03-07T10:35:28;97129.44;;;10.43;83.50
34297;BME280;20564;42.902;25.336;2024-03-07T10:37:57;97133.16;;;10.50;81.55
34297;BME280;20564;42.902;25.336;2024-03-07T10:40:33;97134.38;;;10.55;82.80
34297;BME280;20564;42.902;25.336;2024-03-07T10:43:11;97126.91;;;10.51;80.97
34297;BME280;20564;42.902;25.336;2024-03-07T10:45:48;97126.91;;;10.51;77.61
34297;BME280;20564;42.902;25.336;2024-03-07T10:48:25;97134.69;;;10.43;77.14
34297;BME280;20564;42.902;25.336;2024-03-07T10:51:18;97120.84;;;10.41;78.16
34297;BME280;20564;42.902;25.336;2024-03-07T10:54:20;97131.09;;;10.44;81.73
34297;BME280;20564;42.902;25.336;2024-03-07T10:59:47;97124.28;;;10.51;81.59
34297;BME280;20564;42.902;25.336;2024-03-07T11:02:36;97121.94;;;10.48;78.69
34297;BME280;20564;42.902;25.336;2024-03-07T11:05:05;97121.66;;;10.51;78.90
34297;BME280;20564;42.902;25.336;2024-03-07T11:07:39;97125.53;;;10.47;78.00
34297;BME280;20564;42.902;25.336;2024-03-07T11:10:08;97114.16;;;10.56;78.86
34297;BME280;20564;42.902;25.336;2024-03-07T11:12:39;97119.97;;;10.59;79.85
34297;BME280;20564;42.902;25.336;2024-03-07T11:15:12;97127.19;;;10.57;77.56
34297;BME280;20564;42.902;25.336;2024-03-07T11:17:43;97116.13;;;10.54;79.79
34297;BME280;20564;42.902;25.336;2024-03-07T11:20:34;97117.78;;;10.55;78.72
34297;BME280;20564;42.902;25.336;2024-03-07T11:26:03;97113.34;;;10.55;78.62
34297;BME280;20564;42.902;25.336;2024-03-07T11:28:38;97116.41;;;10.51;79.19
34297;BME280;20564;42.902;25.336;2024-03-07T11:31:16;97114.59;;;10.42;78.85
34297;BME280;20564;42.902;25.336;2024-03-07T11:36:47;97120.00;;;10.50;78.50
34297;BME280;20564;42.902;25.336;2024-03-07T11:39:41;97113.91;;;10.40;78.20
34297;BME280;20564;42.902;25.336;2024-03-07T11:42:24;97111.81;;;10.24;79.82
34297;BME280;20564;42.902;25.336;2024-03-07T11:44:56;97115.31;;;10.24;79.78
34297;BME280;20564;42.902;25.336;2024-03-07T11:47:35;97112.66;;;10.24;78.44
34297;BME280;20564;42.902;25.336;2024-03-07T11:50:06;97112.50;;;10.16;77.99
34297;BME280;20564;42.902;25.336;2024-03-07T11:52:39;97120.56;;;10.14;77.85
34297;BME280;20564;42.902;25.336;2024-03-07T11:55:11;97124.00;;;10.15;77.15
34297;BME280;20564;42.902;25.336;2024-03-07T11:57:38;97119.84;;;10.12;78.13
34297;BME280;20564;42.902;25.336;2024-03-07T12:00:06;97111.13;;;10.12;79.11
34297;BME280;20564;42.902;25.336;2024-03-07T12:02:38;97115.84;;;10.18;79.20
34297;BME280;20564;42.902;25.336;2024-03-07T12:05:06;97120.72;;;10.32;75.46
34297;BME280;20564;42.902;25.336;2024-03-07T12:07:33;97116.66;;;10.48;76.64
34297;BME280;20564;42.902;25.336;2024-03-07T12:10:02;97113.38;;;10.46;76.27
34297;BME280;20564;42.902;25.336;2024-03-07T12:12:33;97112.50;;;10.55;77.80
34297;BME280;20564;42.902;25.336;2024-03-07T12:15:01;97118.03;;;10.61;78.31
34297;BME280;20564;42.902;25.336;2024-03-07T12:17:36;97111.94;;;10.61;75.99
34297;BME280;20564;42.902;25.336;2024-03-07T12:20:04;97116.38;;;10.60;76.87
34297;BME280;20564;42.902;25.336;2024-03-07T12:22:51;97118.31;;;10.49;76.11
34297;BME280;20564;42.902;25.336;2024-03-07T12:25:23;97112.81;;;10.32;77.28
34297;BME280;20564;42.902;25.336;2024-03-07T12:28:08;97106.69;;;10.42;75.65
34297;BME280;20564;42.902;25.336;2024-03-07T12:33:14;97100.81;;;10.67;77.03
34297;BME280;20564;42.902;25.336;2024-03-07T12:35:41;97098.34;;;10.75;76.40
34297;BME280;20564;42.902;25.336;2024-03-07T12:38:11;97109.44;;;10.69;76.75
34297;BME280;20564;42.902;25.336;2024-03-07T12:40:40;97109.72;;;10.56;76.00
34297;BME280;20564;42.902;25.336;2024-03-07T12:43:18;97106.78;;;10.69;76.88
34297;BME280;20564;42.902;25.336;2024-03-07T12:45:50;97109.72;;;10.66;75.16
34297;BME280;20564;42.902;25.336;2024-03-07T12:48:18;97104.38;;;10.38;76.66
34297;BME280;20564;42.902;25.336;2024-03-07T12:50:49;97101.59;;;10.11;76.68
34297;BME280;20564;42.902;25.336;2024-03-07T12:53:23;97109.50;;;9.92;78.29
34297;BME280;20564;42.902;25.336;2024-03-07T12:55:52;97114.03;;;9.80;78.40
34297;BME280;20564;42.902;25.336;2024-03-07T12:58:19;97110.69;;;9.68;79.70
34297;BME280;20564;42.902;25.336;2024-03-07T13:00:54;97115.56;;;9.63;79.88
34297;BME280;20564;42.902;25.336;2024-03-07T13:03:26;97109.84;;;9.48;80.07
34297;BME280;20564;42.902;25.336;2024-03-07T13:05:58;97101.81;;;9.50;79.77
34297;BME280;20564;42.902;25.336;2024-03-07T13:08:28;97098.94;;;9.53;80.12
34297;BME280;20564;42.902;25.336;2024-03-07T13:10:58;97101.16;;;9.48;80.10
34297;BME280;20564;42.902;25.336;2024-03-07T13:13:28;97103.63;;;9.49;80.32
34297;BME280;20564;42.902;25.336;2024-03-07T13:15:55;97097.28;;;9.52;79.25